sensor_id;sensor_type;location;lat;lon;timestamp;P1;durP1;ratioP1;P2;durP2;ratioP2
55368;SDS011;41247;49.736;8.752;2022-08-03T00:01:33;1.60;;;1.42;;
55368;SDS011;41247;49.736;8.752;2022-08-03T00:05:15;2.13;;;1.58;;
55368;SDS011;41247;49.736;8.752;2022-08-03T00:08:56;1.75;;;1.40;;
55368;SDS011;41247;49.736;8.752;2022-08-03T00:12:36;1.70;;;1.35;;
55368;SDS011;41247;49.736;8.752;2022-08-03T00:16:17;2.38;;;1.60;;
55368;SDS011;41247;49.736;8.752;2022-08-03T00:19:58;2.28;;;1.58;;
55368;SDS011;41247;49.736;8.752;2022-08-03T00:23:38;2.30;;;1.60;;
55368;SDS011;41247;49.736;8.752;2022-08-03T00:27:19;2.60;;;1.70;;
55368;SDS011;41247;49.736;8.752;2022-08-03T00:30:59;3.55;;;1.60;;
55368;SDS011;41247;49.736;8.752;2022-08-03T00:34:40;4.68;;;1.63;;
55368;SDS011;41247;49.736;8.752;2022-08-03T00:38:21;3.45;;;1.70;;
55368;SDS011;41247;49.736;8.752;2022-08-03T00:42:05;2.38;;;1.52;;
55368;SDS011;41247;49.736;8.752;2022-08-03T00:45:46;1.70;;;1.42;;
55368;SDS011;41247;49.736;8.752;2022-08-03T00:49:27;1.67;;;1.50;;
55368;SDS011;41247;49.736;8.752;2022-08-03T00:53:09;2.80;;;1.50;;
55368;SDS011;41247;49.736;8.752;2022-08-03T00:56:50;1.60;;;1.50;;
55368;SDS011;41247;49.736;8.752;2022-08-03T01:00:32;1.80;;;1.70;;
55368;SDS011;41247;49.736;8.752;2022-08-03T01:04:17;2.90;;;1.70;;
55368;SDS011;41247;49.736;8.752;2022-08-03T01:08:02;2.65;;;1.80;;
55368;SDS011;41247;49.736;8.752;2022-08-03T01:11:58;3.33;;;1.60;;
55368;SDS011;41247;49.736;8.752;2022-08-03T01:16:05;3.60;;;1.60;;
55368;SDS011;41247;49.736;8.752;2022-08-03T01:27:52;3.35;;;1.60;;
55368;SDS011;41247;49.736;8.752;2022-08-03T01:31:52;3.55;;;1.98;;
55368;SDS011;41247;49.736;8.752;2022-08-03T01:35:42;2.97;;;1.85;;
55368;SDS011;41247;49.736;8.752;2022-08-03T01:39:26;2.88;;;2.00;;
55368;SDS011;41247;49.736;8.752;2022-08-03T01:43:12;1.63;;;1.52;;
55368;SDS011;41247;49.736;8.752;2022-08-03T01:47:00;2.75;;;1.80;;
55368;SDS011;41247;49.736;8.752;2022-08-03T01:50:42;2.20;;;2.00;;
55368;SDS011;41247;49.736;8.752;2022-08-03T01:54:25;6.87;;;1.77;;
55368;SDS011;41247;49.736;8.752;2022-08-03T01:58:07;2.67;;;1.65;;
55368;SDS011;41247;49.736;8.752;2022-08-03T02:01:48;3.15;;;1.83;;
55368;SDS011;41247;49.736;8.752;2022-08-03T02:05:30;3.47;;;1.75;;
55368;SDS011;41247;49.736;8.752;2022-08-03T02:09:12;2.15;;;1.80;;
55368;SDS011;41247;49.736;8.752;2022-08-03T02:12:54;3.60;;;2.20;;
55368;SDS011;41247;49.736;8.752;2022-08-03T02:16:38;2.20;;;2.00;;
55368;SDS011;41247;49.736;8.752;2022-08-03T02:20:19;5.00;;;1.77;;
55368;SDS011;41247;49.736;8.752;2022-08-03T02:24:00;3.13;;;1.95;;
55368;SDS011;41247;49.736;8.752;2022-08-03T02:27:45;2.10;;;1.90;;
55368;SDS011;41247;49.736;8.752;2022-08-03T02:31:33;2.10;;;1.90;;
55368;SDS011;41247;49.736;8.752;2022-08-03T02:35:16;4.65;;;1.80;;
55368;SDS011;41247;49.736;8.752;2022-08-03T02:39:02;2.60;;;1.85;;
55368;SDS011;41247;49.736;8.752;2022-08-03T02:42:43;2.25;;;1.92;;
55368;SDS011;41247;49.736;8.752;2022-08-03T02:46:27;2.35;;;1.65;;
55368;SDS011;41247;49.736;8.752;2022-08-03T02:50:12;3.15;;;1.80;;
55368;SDS011;41247;49.736;8.752;2022-08-03T02:53:55;3.42;;;2.20;;
55368;SDS011;41247;49.736;8.752;2022-08-03T02:57:39;2.83;;;2.10;;
55368;SDS011;41247;49.736;8.752;2022-08-03T03:01:21;5.45;;;2.00;;
55368;SDS011;41247;49.736;8.752;2022-08-03T03:05:05;1.80;;;1.70;;
55368;SDS011;41247;49.736;8.752;2022-08-03T03:08:47;1.80;;;1.70;;
55368;SDS011;41247;49.736;8.752;2022-08-03T03:12:30;3.00;;;1.90;;
55368;SDS011;41247;49.736;8.752;2022-08-03T03:16:12;2.57;;;2.03;;
55368;SDS011;41247;49.736;8.752;2022-08-03T03:19:54;3.30;;;2.00;;
55368;SDS011;41247;49.736;8.752;2022-08-03T03:23:36;3.38;;;1.92;;
55368;SDS011;41247;49.736;8.752;2022-08-03T03:27:18;3.23;;;1.90;;
55368;SDS011;41247;49.736;8.752;2022-08-03T03:30:59;2.35;;;2.00;;
55368;SDS011;41247;49.736;8.752;2022-08-03T03:34:40;2.40;;;1.90;;
55368;SDS011;41247;49.736;8.752;2022-08-03T03:38:21;3.17;;;1.80;;
55368;SDS011;41247;49.736;8.752;2022-08-03T03:42:02;1.95;;;1.85;;
55368;SDS011;41247;49.736;8.752;2022-08-03T03:45:44;3.22;;;1.90;;
55368;SDS011;41247;49.736;8.752;2022-08-03T03:49:25;4.40;;;1.90;;
55368;SDS011;41247;49.736;8.752;2022-08-03T03:53:07;2.03;;;1.80;;
55368;SDS011;41247;49.736;8.752;2022-08-03T03:56:50;2.10;;;1.90;;
55368;SDS011;41247;49.736;8.752;2022-08-03T04:00:31;2.20;;;2.00;;
55368;SDS011;41247;49.736;8.752;2022-08-03T04:04:12;1.85;;;1.75;;
55368;SDS011;41247;49.736;8.752;2022-08-03T04:08:11;3.25;;;2.10;;
55368;SDS011;41247;49.736;8.752;2022-08-03T04:11:57;2.35;;;1.85;;
55368;SDS011;41247;49.736;8.752;2022-08-03T04:15:40;3.97;;;1.90;;
55368;SDS011;41247;49.736;8.752;2022-08-03T04:23:23;4.53;;;1.90;;
55368;SDS011;41247;49.736;8.752;2022-08-03T04:27:07;2.20;;;2.00;;
55368;SDS011;41247;49.736;8.752;2022-08-03T04:34:32;3.38;;;1.80;;
55368;SDS011;41247;49.736;8.752;2022-08-03T04:38:13;2.00;;;1.80;;
55368;SDS011;41247;49.736;8.752;2022-08-03T04:41:58;1.88;;;1.70;;
55368;SDS011;41247;49.736;8.752;2022-08-03T04:45:43;3.53;;;1.85;;
55368;SDS011;41247;49.736;8.752;2022-08-03T04:49:26;2.75;;;1.70;;
55368;SDS011;41247;49.736;8.752;2022-08-03T04:53:08;3.65;;;1.90;;
55368;SDS011;41247;49.736;8.752;2022-08-03T04:56:49;2.10;;;1.90;;
55368;SDS011;41247;49.736;8.752;2022-08-03T05:00:30;3.08;;;1.60;;
55368;SDS011;41247;49.736;8.752;2022-08-03T05:04:10;2.05;;;1.80;;
55368;SDS011;41247;49.736;8.752;2022-08-03T05:07:51;3.13;;;1.90;;
55368;SDS011;41247;49.736;8.752;2022-08-03T05:11:32;2.65;;;1.80;;
55368;SDS011;41247;49.736;8.752;2022-08-03T05:15:12;1.88;;;1.77;;
55368;SDS011;41247;49.736;8.752;2022-08-03T05:18:54;2.90;;;2.20;;
55368;SDS011;41247;49.736;8.752;2022-08-03T05:22:34;2.05;;;1.58;;
55368;SDS011;41247;49.736;8.752;2022-08-03T05:26:15;2.10;;;1.90;;
55368;SDS011;41247;49.736;8.752;2022-08-03T05:29:55;6.07;;;1.90;;
55368;SDS011;41247;49.736;8.752;2022-08-03T05:33:36;5.00;;;2.03;;
55368;SDS011;41247;49.736;8.752;2022-08-03T05:37:17;2.10;;;1.90;;
55368;SDS011;41247;49.736;8.752;2022-08-03T05:40:57;5.78;;;1.88;;
55368;SDS011;41247;49.736;8.752;2022-08-03T05:44:38;3.38;;;1.65;;
55368;SDS011;41247;49.736;8.752;2022-08-03T05:48:18;3.38;;;1.98;;
55368;SDS011;41247;49.736;8.752;2022-08-03T05:51:59;3.08;;;1.80;;
55368;SDS011;41247;49.736;8.752;2022-08-03T05:55:40;2.13;;;1.67;;
55368;SDS011;41247;49.736;8.752;2022-08-03T05:59:20;1.80;;;1.70;;
55368;SDS011;41247;49.736;8.752;2022-08-03T06:03:01;2.25;;;1.95;;
55368;SDS011;41247;49.736;8.752;2022-08-03T06:06:42;2.03;;;1.70;;
55368;SDS011;41247;49.736;8.752;2022-08-03T06:10:23;2.20;;;2.03;;
55368;SDS011;41247;49.736;8.752;2022-08-03T06:14:03;3.13;;;1.80;;
55368;SDS011;41247;49.736;8.752;2022-08-03T06:17:45;1.63;;;1.52;;
55368;SDS011;41247;49.736;8.752;2022-08-03T06:21:26;1.92;;;1.73;;
55368;SDS011;41247;49.736;8.752;2022-08-03T06:25:07;1.60;;;1.50;;
55368;SDS011;41247;49.736;8.752;2022-08-03T06:28:48;2.08;;;1.60;;
55368;SDS011;41247;49.736;8.752;2022-08-03T06:32:29;2.60;;;1.90;;
55368;SDS011;41247;49.736;8.752;2022-08-03T06:36:09;3.35;;;1.50;;
55368;SDS011;41247;49.736;8.752;2022-08-03T06:39:50;1.73;;;1.63;;
55368;SDS011;41247;49.736;8.752;2022-08-03T06:43:30;3.78;;;1.45;;
55368;SDS011;41247;49.736;8.752;2022-08-03T06:47:11;1.48;;;1.35;;
55368;SDS011;41247;49.736;8.752;2022-08-03T06:50:52;1.85;;;1.40;;
55368;SDS011;41247;49.736;8.752;2022-08-03T06:54:32;1.50;;;1.35;;
55368;SDS011;41247;49.736;8.752;2022-08-03T06:58:14;2.17;;;1.45;;
55368;SDS011;41247;49.736;8.752;2022-08-03T07:01:54;3.90;;;1.50;;
55368;SDS011;41247;49.736;8.752;2022-08-03T07:05:35;2.75;;;1.58;;
55368;SDS011;41247;49.736;8.752;2022-08-03T07:09:15;4.07;;;1.35;;
55368;SDS011;41247;49.736;8.752;2022-08-03T07:12:56;1.50;;;1.20;;
55368;SDS011;41247;49.736;8.752;2022-08-03T07:16:37;4.03;;;1.85;;
55368;SDS011;41247;49.736;8.752;2022-08-03T07:20:17;2.15;;;1.40;;
55368;SDS011;41247;49.736;8.752;2022-08-03T07:23:58;3.88;;;1.70;;
55368;SDS011;41247;49.736;8.752;2022-08-03T07:27:42;7.82;;;2.17;;
55368;SDS011;41247;49.736;8.752;2022-08-03T07:31:26;4.88;;;1.10;;
55368;SDS011;41247;49.736;8.752;2022-08-03T07:35:07;2.05;;;1.42;;
55368;SDS011;41247;49.736;8.752;2022-08-03T07:38:48;1.50;;;1.20;;
55368;SDS011;41247;49.736;8.752;2022-08-03T07:42:29;8.55;;;1.63;;
55368;SDS011;41247;49.736;8.752;2022-08-03T07:46:10;2.78;;;1.45;;
55368;SDS011;41247;49.736;8.752;2022-08-03T07:49:51;2.95;;;1.30;;
55368;SDS011;41247;49.736;8.752;2022-08-03T07:53:31;2.55;;;1.30;;
55368;SDS011;41247;49.736;8.752;2022-08-03T07:57:12;4.63;;;1.20;;
55368;SDS011;41247;49.736;8.752;2022-08-03T08:00:53;1.77;;;1.23;;
55368;SDS011;41247;49.736;8.752;2022-08-03T08:04:33;1.40;;;1.30;;
55368;SDS011;41247;49.736;8.752;2022-08-03T08:08:14;1.63;;;1.42;;
55368;SDS011;41247;49.736;8.752;2022-08-03T08:11:55;2.80;;;1.27;;
55368;SDS011;41247;49.736;8.752;2022-08-03T08:15:35;1.13;;;1.08;;
55368;SDS011;41247;49.736;8.752;2022-08-03T08:19:16;2.42;;;1.10;;
55368;SDS011;41247;49.736;8.752;2022-08-03T08:23:06;1.55;;;1.00;;
55368;SDS011;41247;49.736;8.752;2022-08-03T08:26:47;1.73;;;1.17;;
55368;SDS011;41247;49.736;8.752;2022-08-03T08:30:28;3.15;;;1.27;;
55368;SDS011;41247;49.736;8.752;2022-08-03T08:34:10;2.27;;;1.10;;
55368;SDS011;41247;49.736;8.752;2022-08-03T08:37:51;3.40;;;1.27;;
55368;SDS011;41247;49.736;8.752;2022-08-03T08:41:31;6.60;;;1.40;;
55368;SDS011;41247;49.736;8.752;2022-08-03T08:45:12;3.40;;;1.58;;
55368;SDS011;41247;49.736;8.752;2022-08-03T08:48:53;4.63;;;1.60;;
55368;SDS011;41247;49.736;8.752;2022-08-03T08:52:35;3.60;;;1.45;;
55368;SDS011;41247;49.736;8.752;2022-08-03T08:56:19;1.77;;;1.20;;
55368;SDS011;41247;49.736;8.752;2022-08-03T09:00:07;2.70;;;1.30;;
55368;SDS011;41247;49.736;8.752;2022-08-03T09:03:50;1.30;;;1.20;;
55368;SDS011;41247;49.736;8.752;2022-08-03T09:07:32;1.67;;;1.15;;
55368;SDS011;41247;49.736;8.752;2022-08-03T09:11:12;5.75;;;1.30;;
55368;SDS011;41247;49.736;8.752;2022-08-03T09:14:54;1.55;;;1.25;;
55368;SDS011;41247;49.736;8.752;2022-08-03T09:18:34;9.95;;;2.63;;
55368;SDS011;41247;49.736;8.752;2022-08-03T09:22:16;13.38;;;2.97;;
55368;SDS011;41247;49.736;8.752;2022-08-03T09:25:57;2.50;;;1.67;;
55368;SDS011;41247;49.736;8.752;2022-08-03T09:29:38;9.35;;;2.60;;
55368;SDS011;41247;49.736;8.752;2022-08-03T09:33:18;10.18;;;3.13;;
55368;SDS011;41247;49.736;8.752;2022-08-03T09:36:59;1.60;;;1.50;;
55368;SDS011;41247;49.736;8.752;2022-08-03T09:40:40;2.45;;;1.23;;
55368;SDS011;41247;49.736;8.752;2022-08-03T09:44:27;4.55;;;1.60;;
55368;SDS011;41247;49.736;8.752;2022-08-03T09:52:13;3.08;;;1.40;;
55368;SDS011;41247;49.736;8.752;2022-08-03T09:55:59;3.63;;;1.83;;
55368;SDS011;41247;49.736;8.752;2022-08-03T09:59:41;3.65;;;1.70;;
55368;SDS011;41247;49.736;8.752;2022-08-03T10:03:22;2.33;;;1.30;;
55368;SDS011;41247;49.736;8.752;2022-08-03T10:07:06;3.40;;;1.35;;
55368;SDS011;41247;49.736;8.752;2022-08-03T10:10:49;2.45;;;1.20;;
55368;SDS011;41247;49.736;8.752;2022-08-03T10:14:31;1.73;;;1.38;;
55368;SDS011;41247;49.736;8.752;2022-08-03T10:18:12;1.63;;;1.30;;
55368;SDS011;41247;49.736;8.752;2022-08-03T10:22:02;2.35;;;1.35;;
55368;SDS011;41247;49.736;8.752;2022-08-03T10:25:53;4.80;;;1.40;;
55368;SDS011;41247;49.736;8.752;2022-08-03T10:29:42;1.60;;;1.50;;
55368;SDS011;41247;49.736;8.752;2022-08-03T10:33:30;3.47;;;1.50;;
55368;SDS011;41247;49.736;8.752;2022-08-03T10:37:14;2.78;;;1.40;;
55368;SDS011;41247;49.736;8.752;2022-08-03T10:40:56;1.33;;;1.23;;
55368;SDS011;41247;49.736;8.752;2022-08-03T10:44:38;1.75;;;1.27;;
55368;SDS011;41247;49.736;8.752;2022-08-03T10:48:20;1.65;;;1.10;;
55368;SDS011;41247;49.736;8.752;2022-08-03T10:52:02;2.67;;;1.40;;
55368;SDS011;41247;49.736;8.752;2022-08-03T10:55:45;1.60;;;1.15;;
55368;SDS011;41247;49.736;8.752;2022-08-03T11:03:24;2.65;;;1.10;;
55368;SDS011;41247;49.736;8.752;2022-08-03T11:07:18;6.38;;;1.30;;
55368;SDS011;41247;49.736;8.752;2022-08-03T11:11:02;3.55;;;1.30;;
55368;SDS011;41247;49.736;8.752;2022-08-03T11:15:03;8.57;;;1.50;;
55368;SDS011;41247;49.736;8.752;2022-08-03T11:18:56;1.40;;;1.30;;
55368;SDS011;41247;49.736;8.752;2022-08-03T11:22:57;4.28;;;1.30;;
55368;SDS011;41247;49.736;8.752;2022-08-03T11:26:37;3.38;;;1.50;;
55368;SDS011;41247;49.736;8.752;2022-08-03T11:34:03;3.30;;;1.20;;
55368;SDS011;41247;49.736;8.752;2022-08-03T11:41:37;2.55;;;1.40;;
55368;SDS011;41247;49.736;8.752;2022-08-03T11:45:18;2.25;;;1.30;;
55368;SDS011;41247;49.736;8.752;2022-08-03T11:49:02;2.85;;;1.33;;
55368;SDS011;41247;49.736;8.752;2022-08-03T11:52:45;1.88;;;1.30;;
55368;SDS011;41247;49.736;8.752;2022-08-03T11:56:27;1.20;;;1.10;;
55368;SDS011;41247;49.736;8.752;2022-08-03T12:00:18;1.83;;;1.48;;
55368;SDS011;41247;49.736;8.752;2022-08-03T12:04:05;2.35;;;1.08;;
55368;SDS011;41247;49.736;8.752;2022-08-03T12:07:46;1.52;;;1.33;;
55368;SDS011;41247;49.736;8.752;2022-08-03T12:11:27;1.40;;;1.30;;
55368;SDS011;41247;49.736;8.752;2022-08-03T12:15:08;5.30;;;1.20;;
55368;SDS011;41247;49.736;8.752;2022-08-03T12:19:04;3.50;;;1.23;;
55368;SDS011;41247;49.736;8.752;2022-08-03T12:22:45;2.50;;;1.25;;
55368;SDS011;41247;49.736;8.752;2022-08-03T12:26:26;3.58;;;1.25;;
55368;SDS011;41247;49.736;8.752;2022-08-03T12:30:09;1.52;;;1.23;;
55368;SDS011;41247;49.736;8.752;2022-08-03T12:33:54;1.87;;;0.97;;
55368;SDS011;41247;49.736;8.752;2022-08-03T12:37:39;1.17;;;1.00;;
55368;SDS011;41247;49.736;8.752;2022-08-03T12:41:28;2.03;;;1.10;;
55368;SDS011;41247;49.736;8.752;2022-08-03T12:45:27;4.22;;;1.30;;
55368;SDS011;41247;49.736;8.752;2022-08-03T12:49:09;6.13;;;1.30;;
55368;SDS011;41247;49.736;8.752;2022-08-03T12:52:52;1.63;;;1.08;;
55368;SDS011;41247;49.736;8.752;2022-08-03T12:56:33;1.92;;;1.10;;
55368;SDS011;41247;49.736;8.752;2022-08-03T13:00:15;1.48;;;1.08;;
55368;SDS011;41247;49.736;8.752;2022-08-03T13:03:57;3.20;;;1.00;;
55368;SDS011;41247;49.736;8.752;2022-08-03T13:07:45;1.27;;;1.00;;
55368;SDS011;41247;49.736;8.752;2022-08-03T13:11:26;1.45;;;0.90;;
55368;SDS011;41247;49.736;8.752;2022-08-03T13:15:07;1.60;;;1.10;;
55368;SDS011;41247;49.736;8.752;2022-08-03T13:18:48;1.20;;;1.00;;
55368;SDS011;41247;49.736;8.752;2022-08-03T13:22:29;2.55;;;1.10;;
55368;SDS011;41247;49.736;8.752;2022-08-03T13:26:10;3.50;;;1.07;;
55368;SDS011;41247;49.736;8.752;2022-08-03T13:29:51;6.30;;;1.13;;
55368;SDS011;41247;49.736;8.752;2022-08-03T13:33:32;2.30;;;0.80;;
55368;SDS011;41247;49.736;8.752;2022-08-03T13:37:13;0.93;;;0.93;;
55368;SDS011;41247;49.736;8.752;2022-08-03T13:40:54;1.67;;;0.90;;
55368;SDS011;41247;49.736;8.752;2022-08-03T13:44:34;2.17;;;0.80;;
55368;SDS011;41247;49.736;8.752;2022-08-03T13:48:15;1.00;;;0.87;;
55368;SDS011;41247;49.736;8.752;2022-08-03T13:51:56;2.20;;;0.90;;
55368;SDS011;41247;49.736;8.752;2022-08-03T13:55:36;3.10;;;1.00;;
55368;SDS011;41247;49.736;8.752;2022-08-03T13:59:17;3.20;;;0.80;;
55368;SDS011;41247;49.736;8.752;2022-08-03T14:02:59;1.08;;;0.63;;
55368;SDS011;41247;49.736;8.752;2022-08-03T14:06:42;1.77;;;0.70;;
55368;SDS011;41247;49.736;8.752;2022-08-03T14:10:22;4.03;;;0.70;;
55368;SDS011;41247;49.736;8.752;2022-08-03T14:14:03;1.57;;;0.70;;
55368;SDS011;41247;49.736;8.752;2022-08-03T14:17:44;2.00;;;1.00;;
55368;SDS011;41247;49.736;8.752;2022-08-03T14:21:24;4.13;;;1.00;;
55368;SDS011;41247;49.736;8.752;2022-08-03T14:25:05;4.47;;;0.90;;
55368;SDS011;41247;49.736;8.752;2022-08-03T14:28:46;1.55;;;0.90;;
55368;SDS011;41247;49.736;8.752;2022-08-03T14:32:27;2.70;;;1.33;;
55368;SDS011;41247;49.736;8.752;2022-08-03T14:36:07;4.40;;;0.90;;
55368;SDS011;41247;49.736;8.752;2022-08-03T14:39:48;3.30;;;0.90;;
55368;SDS011;41247;49.736;8.752;2022-08-03T14:43:29;2.40;;;1.20;;
55368;SDS011;41247;49.736;8.752;2022-08-03T14:47:09;1.27;;;0.93;;
55368;SDS011;41247;49.736;8.752;2022-08-03T14:50:50;2.07;;;0.77;;
55368;SDS011;41247;49.736;8.752;2022-08-03T14:54:31;3.23;;;0.80;;
55368;SDS011;41247;49.736;8.752;2022-08-03T14:58:11;3.67;;;0.97;;
55368;SDS011;41247;49.736;8.752;2022-08-03T15:01:52;3.83;;;0.80;;
55368;SDS011;41247;49.736;8.752;2022-08-03T15:05:33;3.30;;;1.00;;
55368;SDS011;41247;49.736;8.752;2022-08-03T15:09:13;1.30;;;0.77;;
55368;SDS011;41247;49.736;8.752;2022-08-03T15:12:54;0.77;;;0.60;;
55368;SDS011;41247;49.736;8.752;2022-08-03T15:16:34;4.25;;;0.80;;
55368;SDS011;41247;49.736;8.752;2022-08-03T15:20:16;0.73;;;0.70;;
55368;SDS011;41247;49.736;8.752;2022-08-03T15:23:56;7.57;;;0.80;;
55368;SDS011;41247;49.736;8.752;2022-08-03T15:27:37;3.92;;;0.82;;
55368;SDS011;41247;49.736;8.752;2022-08-03T15:31:21;3.75;;;0.75;;
55368;SDS011;41247;49.736;8.752;2022-08-03T15:35:03;1.15;;;0.70;;
55368;SDS011;41247;49.736;8.752;2022-08-03T15:38:44;1.10;;;0.65;;
55368;SDS011;41247;49.736;8.752;2022-08-03T15:42:26;3.03;;;0.70;;
55368;SDS011;41247;49.736;8.752;2022-08-03T15:46:08;3.90;;;0.85;;
55368;SDS011;41247;49.736;8.752;2022-08-03T15:49:49;0.87;;;0.87;;
55368;SDS011;41247;49.736;8.752;2022-08-03T15:53:29;1.93;;;0.87;;
55368;SDS011;41247;49.736;8.752;2022-08-03T15:57:10;3.80;;;0.87;;
55368;SDS011;41247;49.736;8.752;2022-08-03T16:00:50;2.33;;;1.40;;
55368;SDS011;41247;49.736;8.752;2022-08-03T16:04:31;1.50;;;0.90;;
55368;SDS011;41247;49.736;8.752;2022-08-03T16:08:12;1.05;;;0.90;;
55368;SDS011;41247;49.736;8.752;2022-08-03T16:11:53;0.85;;;0.77;;
55368;SDS011;41247;49.736;8.752;2022-08-03T16:15:33;4.03;;;1.00;;
55368;SDS011;41247;49.736;8.752;2022-08-03T16:19:14;1.48;;;0.80;;
55368;SDS011;41247;49.736;8.752;2022-08-03T16:22:55;0.93;;;0.80;;
55368;SDS011;41247;49.736;8.752;2022-08-03T16:26:35;3.70;;;1.00;;
55368;SDS011;41247;49.736;8.752;2022-08-03T16:30:16;1.27;;;0.82;;
55368;SDS011;41247;49.736;8.752;2022-08-03T16:33:57;0.85;;;0.82;;
55368;SDS011;41247;49.736;8.752;2022-08-03T16:37:37;1.58;;;0.80;;
55368;SDS011;41247;49.736;8.752;2022-08-03T16:41:18;2.78;;;0.82;;
55368;SDS011;41247;49.736;8.752;2022-08-03T16:44:59;3.75;;;0.80;;
55368;SDS011;41247;49.736;8.752;2022-08-03T16:48:39;1.15;;;1.00;;
55368;SDS011;41247;49.736;8.752;2022-08-03T16:52:20;2.25;;;0.90;;
55368;SDS011;41247;49.736;8.752;2022-08-03T16:56:00;1.35;;;0.70;;
55368;SDS011;41247;49.736;8.752;2022-08-03T16:59:41;1.33;;;0.80;;
55368;SDS011;41247;49.736;8.752;2022-08-03T17:03:22;1.88;;;0.90;;
55368;SDS011;41247;49.736;8.752;2022-08-03T17:07:02;2.38;;;1.15;;
55368;SDS011;41247;49.736;8.752;2022-08-03T17:10:43;2.17;;;1.00;;
55368;SDS011;41247;49.736;8.752;2022-08-03T17:14:23;1.40;;;0.95;;
55368;SDS011;41247;49.736;8.752;2022-08-03T17:18:04;1.08;;;0.98;;
55368;SDS011;41247;49.736;8.752;2022-08-03T17:21:48;1.25;;;1.15;;
55368;SDS011;41247;49.736;8.752;2022-08-03T17:25:38;0.98;;;0.88;;
55368;SDS011;41247;49.736;8.752;2022-08-03T17:29:20;2.00;;;0.87;;
55368;SDS011;41247;49.736;8.752;2022-08-03T17:33:02;1.02;;;0.95;;
55368;SDS011;41247;49.736;8.752;2022-08-03T17:36:43;0.70;;;0.70;;
55368;SDS011;41247;49.736;8.752;2022-08-03T17:40:24;1.10;;;0.70;;
55368;SDS011;41247;49.736;8.752;2022-08-03T17:44:04;1.23;;;0.88;;
55368;SDS011;41247;49.736;8.752;2022-08-03T17:47:45;1.63;;;0.60;;
55368;SDS011;41247;49.736;8.752;2022-08-03T17:51:29;1.55;;;0.75;;
55368;SDS011;41247;49.736;8.752;2022-08-03T17:55:13;2.05;;;0.85;;
55368;SDS011;41247;49.736;8.752;2022-08-03T17:59:02;3.97;;;0.88;;
55368;SDS011;41247;49.736;8.752;2022-08-03T18:03:00;7.07;;;0.98;;
55368;SDS011;41247;49.736;8.752;2022-08-03T18:07:13;2.72;;;0.75;;
55368;SDS011;41247;49.736;8.752;2022-08-03T18:14:47;1.63;;;1.10;;
55368;SDS011;41247;49.736;8.752;2022-08-03T18:18:35;3.33;;;1.10;;
55368;SDS011;41247;49.736;8.752;2022-08-03T18:22:20;7.53;;;1.17;;
55368;SDS011;41247;49.736;8.752;2022-08-03T18:26:02;7.88;;;1.20;;
55368;SDS011;41247;49.736;8.752;2022-08-03T18:29:49;3.35;;;1.40;;
55368;SDS011;41247;49.736;8.752;2022-08-03T18:33:30;3.75;;;1.48;;
55368;SDS011;41247;49.736;8.752;2022-08-03T18:37:16;3.15;;;1.35;;
55368;SDS011;41247;49.736;8.752;2022-08-03T18:41:02;6.30;;;1.30;;
55368;SDS011;41247;49.736;8.752;2022-08-03T18:44:42;4.30;;;1.70;;
55368;SDS011;41247;49.736;8.752;2022-08-03T18:52:16;2.45;;;1.80;;
55368;SDS011;41247;49.736;8.752;2022-08-03T18:56:09;4.80;;;1.73;;
55368;SDS011;41247;49.736;8.752;2022-08-03T19:00:15;2.60;;;1.60;;
55368;SDS011;41247;49.736;8.752;2022-08-03T19:03:57;3.70;;;1.60;;
55368;SDS011;41247;49.736;8.752;2022-08-03T19:08:02;3.92;;;1.38;;
55368;SDS011;41247;49.736;8.752;2022-08-03T19:11:52;2.42;;;1.60;;
55368;SDS011;41247;49.736;8.752;2022-08-03T19:15:36;4.40;;;1.75;;
55368;SDS011;41247;49.736;8.752;2022-08-03T19:19:18;3.30;;;1.92;;
55368;SDS011;41247;49.736;8.752;2022-08-03T19:22:59;2.83;;;1.65;;
55368;SDS011;41247;49.736;8.752;2022-08-03T19:26:40;1.92;;;1.60;;
55368;SDS011;41247;49.736;8.752;2022-08-03T19:30:21;2.28;;;1.80;;
55368;SDS011;41247;49.736;8.752;2022-08-03T19:34:02;3.10;;;1.88;;
55368;SDS011;41247;49.736;8.752;2022-08-03T19:37:43;3.35;;;1.50;;
55368;SDS011;41247;49.736;8.752;2022-08-03T19:41:27;3.28;;;2.03;;
55368;SDS011;41247;49.736;8.752;2022-08-03T19:45:14;4.88;;;1.50;;
55368;SDS011;41247;49.736;8.752;2022-08-03T19:49:02;4.53;;;1.60;;
55368;SDS011;41247;49.736;8.752;2022-08-03T19:52:46;2.42;;;1.80;;
55368;SDS011;41247;49.736;8.752;2022-08-03T19:56:28;3.57;;;1.77;;
55368;SDS011;41247;49.736;8.752;2022-08-03T20:00:10;1.80;;;1.60;;
55368;SDS011;41247;49.736;8.752;2022-08-03T20:03:52;2.42;;;1.77;;
55368;SDS011;41247;49.736;8.752;2022-08-03T20:07:33;2.72;;;1.65;;
55368;SDS011;41247;49.736;8.752;2022-08-03T20:11:14;2.28;;;1.65;;
55368;SDS011;41247;49.736;8.752;2022-08-03T20:14:55;3.78;;;1.70;;
55368;SDS011;41247;49.736;8.752;2022-08-03T20:18:37;4.25;;;1.80;;
55368;SDS011;41247;49.736;8.752;2022-08-03T20:22:18;5.13;;;1.90;;
55368;SDS011;41247;49.736;8.752;2022-08-03T20:26:06;3.25;;;1.55;;
55368;SDS011;41247;49.736;8.752;2022-08-03T20:29:48;4.13;;;1.60;;
55368;SDS011;41247;49.736;8.752;2022-08-03T20:33:30;1.70;;;1.60;;
55368;SDS011;41247;49.736;8.752;2022-08-03T20:37:10;3.17;;;2.00;;
55368;SDS011;41247;49.736;8.752;2022-08-03T20:40:51;1.98;;;1.70;;
55368;SDS011;41247;49.736;8.752;2022-08-03T20:44:32;4.25;;;1.90;;
55368;SDS011;41247;49.736;8.752;2022-08-03T20:48:12;3.10;;;1.67;;
55368;SDS011;41247;49.736;8.752;2022-08-03T20:51:53;3.38;;;1.73;;
55368;SDS011;41247;49.736;8.752;2022-08-03T20:55:35;1.65;;;1.55;;
55368;SDS011;41247;49.736;8.752;2022-08-03T20:59:17;1.65;;;1.55;;
55368;SDS011;41247;49.736;8.752;2022-08-03T21:02:58;2.28;;;2.08;;
55368;SDS011;41247;49.736;8.752;2022-08-03T21:06:45;2.15;;;1.95;;
55368;SDS011;41247;49.736;8.752;2022-08-03T21:10:32;4.00;;;1.87;;
55368;SDS011;41247;49.736;8.752;2022-08-03T21:14:14;2.22;;;1.73;;
55368;SDS011;41247;49.736;8.752;2022-08-03T21:18:04;2.55;;;1.90;;
55368;SDS011;41247;49.736;8.752;2022-08-03T21:21:50;2.08;;;1.85;;
55368;SDS011;41247;49.736;8.752;2022-08-03T21:25:32;6.47;;;2.05;;
55368;SDS011;41247;49.736;8.752;2022-08-03T21:29:13;2.20;;;2.00;;
55368;SDS011;41247;49.736;8.752;2022-08-03T21:32:55;3.88;;;1.92;;
55368;SDS011;41247;49.736;8.752;2022-08-03T21:36:36;2.80;;;2.10;;
55368;SDS011;41247;49.736;8.752;2022-08-03T21:40:17;3.28;;;2.05;;
55368;SDS011;41247;49.736;8.752;2022-08-03T21:43:58;5.30;;;2.20;;
55368;SDS011;41247;49.736;8.752;2022-08-03T21:47:40;2.78;;;2.25;;
55368;SDS011;41247;49.736;8.752;2022-08-03T21:51:24;3.25;;;2.15;;
55368;SDS011;41247;49.736;8.752;2022-08-03T21:55:05;8.40;;;2.40;;
55368;SDS011;41247;49.736;8.752;2022-08-03T21:58:54;2.13;;;1.92;;
55368;SDS011;41247;49.736;8.752;2022-08-03T22:02:42;2.28;;;1.95;;
55368;SDS011;41247;49.736;8.752;2022-08-03T22:06:33;2.07;;;1.87;;
55368;SDS011;41247;49.736;8.752;2022-08-03T22:10:14;4.20;;;2.38;;
55368;SDS011;41247;49.736;8.752;2022-08-03T22:13:55;4.88;;;2.08;;
55368;SDS011;41247;49.736;8.752;2022-08-03T22:17:36;2.53;;;2.00;;
55368;SDS011;41247;49.736;8.752;2022-08-03T22:21:18;5.05;;;2.38;;
55368;SDS011;41247;49.736;8.752;2022-08-03T22:25:02;4.18;;;2.08;;
55368;SDS011;41247;49.736;8.752;2022-08-03T22:28:45;2.65;;;2.22;;
55368;SDS011;41247;49.736;8.752;2022-08-03T22:32:27;2.10;;;1.90;;
55368;SDS011;41247;49.736;8.752;2022-08-03T22:36:09;1.98;;;1.67;;
55368;SDS011;41247;49.736;8.752;2022-08-03T22:39:51;5.60;;;2.75;;
55368;SDS011;41247;49.736;8.752;2022-08-03T22:43:32;3.15;;;2.10;;
55368;SDS011;41247;49.736;8.752;2022-08-03T22:47:13;2.20;;;2.00;;
55368;SDS011;41247;49.736;8.752;2022-08-03T22:50:54;2.50;;;2.00;;
55368;SDS011;41247;49.736;8.752;2022-08-03T22:54:35;2.47;;;2.20;;
55368;SDS011;41247;49.736;8.752;2022-08-03T22:58:17;2.20;;;2.00;;
55368;SDS011;41247;49.736;8.752;2022-08-03T23:02:03;3.45;;;1.98;;